Time;durP1;ratioP1;P1;durP2;ratioP2;P2;SDS_P1;SDS_P2;PMS_P1;PMS_P2;Temp;Humidity;BMP_temperature;BMP_pressure;BME280_temperature;BME280_humidity;BME280_pressure;Samples;Min_cycle;Max_cycle;Signal;HPM_P1;HPM_P2
2021/06/18 00:01:38;;;;;;;15.20;10.00;;;25.90;63.70;;;;;;4985010;28;20541;-50
2021/06/18 00:04:05;;;;;;;10.50;9.47;;;25.90;63.90;;;;;;4985573;28;20525;-53
2021/06/18 00:06:33;;;;;;;13.20;10.53;;;25.90;64.10;;;;;;4985933;28;20442;-51
2021/06/18 00:09:01;;;;;;;11.40;10.27;;;25.80;64.10;;;;;;4984852;28;20446;-49
2021/06/18 00:11:27;;;;;;;9.40;8.60;;;25.80;64.20;;;;;;4983236;28;20511;-47
2021/06/18 00:13:54;;;;;;;10.10;9.10;;;25.80;64.40;;;;;;4985149;28;20496;-50
2021/06/18 00:16:21;;;;;;;10.17;8.90;;;25.80;64.70;;;;;;4985016;28;20513;-53
2021/06/18 00:18:47;;;;;;;10.00;8.97;;;25.80;64.80;;;;;;4984175;28;20942;-53
2021/06/18 00:21:14;;;;;;;10.63;9.60;;;25.80;64.60;;;;;;4983416;28;20435;-48
2021/06/18 00:23:42;;;;;;;10.80;9.77;;;25.80;64.90;;;;;;4981567;28;20447;-48
2021/06/18 00:26:08;;;;;;;10.33;9.43;;;25.70;64.90;;;;;;4975123;28;20529;-50
2021/06/18 00:28:36;;;;;;;11.40;10.40;;;25.70;65.10;;;;;;4975057;28;20451;-55
2021/06/18 00:31:02;;;;;;;10.23;9.17;;;25.60;65.30;;;;;;4975125;28;20514;-55
2021/06/18 00:33:30;;;;;;;10.20;9.13;;;25.60;65.60;;;;;;4975063;28;20501;-53
2021/06/18 00:35:56;;;;;;;10.60;9.60;;;25.50;65.70;;;;;;4974869;28;20457;-51
2021/06/18 00:38:23;;;;;;;10.73;9.57;;;25.50;66.00;;;;;;4974766;28;20450;-53
2021/06/18 00:40:51;;;;;;;10.30;9.30;;;25.50;66.20;;;;;;4974672;28;20454;-51
2021/06/18 00:43:18;;;;;;;10.33;9.50;;;25.40;66.40;;;;;;4974685;28;20509;-51
2021/06/18 00:45:45;;;;;;;11.13;10.03;;;25.40;66.40;;;;;;4974781;28;20537;-50
2021/06/18 00:48:13;;;;;;;11.53;10.33;;;25.40;67.00;;;;;;4974646;28;20455;-53
2021/06/18 00:50:42;;;;;;;11.37;10.27;;;25.30;67.20;;;;;;4974531;28;20985;-51
2021/06/18 00:53:10;;;;;;;10.40;9.40;;;25.30;67.10;;;;;;4974916;28;20907;-51
2021/06/18 00:55:37;;;;;;;10.63;9.63;;;25.30;67.30;;;;;;4974577;28;20454;-49
2021/06/18 00:58:05;;;;;;;13.43;9.73;;;25.20;67.60;;;;;;4974793;28;20481;-51
2021/06/18 01:00:31;;;;;;;11.57;10.10;;;25.20;67.90;;;;;;4974522;28;20505;-48
2021/06/18 01:02:58;;;;;;;11.10;9.80;;;25.20;67.90;;;;;;4974570;28;20844;-53
2021/06/18 01:05:26;;;;;;;10.57;9.63;;;25.20;68.20;;;;;;4974710;28;20447;-55
2021/06/18 01:08:02;;;;;;;15.00;10.23;;;25.10;68.60;;;;;;4974615;28;20611;-53
2021/06/18 01:10:38;;;;;;;11.20;10.10;;;25.10;68.80;;;;;;4974401;28;20482;-53
2021/06/18 01:13:19;;;;;;;13.90;10.23;;;25.10;68.90;;;;;;4974415;28;20435;-51
2021/06/18 01:15:54;;;;;;;11.13;9.83;;;25.00;69.30;;;;;;4974748;28;20493;-51
2021/06/18 01:18:27;;;;;;;11.37;10.23;;;25.00;69.60;;;;;;4974540;28;20446;-53
2021/06/18 01:21:10;;;;;;;10.67;9.67;;;25.00;69.60;;;;;;4974734;28;20431;-51
2021/06/18 01:23:53;;;;;;;11.40;10.23;;;24.90;69.90;;;;;;4977883;28;20973;-51
2021/06/18 01:26:33;;;;;;;10.93;9.93;;;24.90;70.50;;;;;;4978538;28;20442;-51
2021/06/18 01:29:03;;;;;;;12.10;10.90;;;24.90;70.40;;;;;;4978491;28;20431;-52
2021/06/18 01:31:32;;;;;;;14.00;11.20;;;24.90;70.40;;;;;;4978070;28;20497;-50
2021/06/18 01:34:02;;;;;;;11.07;10.07;;;24.80;70.80;;;;;;4978445;28;20462;-48
2021/06/18 01:36:30;;;;;;;12.07;10.97;;;24.70;71.10;;;;;;4978186;28;20512;-52
2021/06/18 01:38:59;;;;;;;11.77;10.70;;;24.70;71.40;;;;;;4978344;28;20454;-54
2021/06/18 01:41:31;;;;;;;12.53;11.23;;;24.70;71.90;;;;;;4977933;28;20505;-48
2021/06/18 01:43:59;;;;;;;12.67;11.37;;;24.60;72.10;;;;;;4978226;28;20864;-46
2021/06/18 01:46:33;;;;;;;13.10;11.10;;;24.60;72.30;;;;;;4978373;28;20778;-49
2021/06/18 01:49:03;;;;;;;12.60;11.40;;;24.50;72.70;;;;;;4977983;28;20794;-53
2021/06/18 01:51:32;;;;;;;11.50;9.80;;;24.50;73.00;;;;;;4978194;28;20529;-53
2021/06/18 01:54:01;;;;;;;12.80;11.60;;;24.50;73.30;;;;;;4977886;28;20462;-51
2021/06/18 01:56:29;;;;;;;12.10;11.00;;;24.50;73.90;;;;;;4977837;28;20462;-52
2021/06/18 01:58:59;;;;;;;12.90;11.70;;;24.40;74.10;;;;;;4978067;28;20514;-53
2021/06/18 02:01:33;;;;;;;12.27;11.27;;;24.40;74.30;;;;;;5009321;23;20561;-50
2021/06/18 02:04:04;;;;;;;12.67;11.37;;;24.40;74.70;;;;;;4989375;23;20480;-51
2021/06/18 02:06:33;;;;;;;12.13;10.93;;;24.30;75.20;;;;;;4997365;28;20426;-51
2021/06/18 02:09:01;;;;;;;12.47;11.40;;;24.30;75.50;;;;;;4997109;28;20470;-51
2021/06/18 02:11:30;;;;;;;13.13;11.67;;;24.30;75.90;;;;;;4997062;28;20482;-53
2021/06/18 02:13:58;;;;;;;13.23;12.03;;;24.30;76.30;;;;;;4996891;28;20449;-52
2021/06/18 02:16:28;;;;;;;12.83;11.53;;;24.20;76.80;;;;;;4997018;28;20549;-54
2021/06/18 02:18:57;;;;;;;14.20;12.60;;;24.20;77.20;;;;;;4996812;28;20450;-51
2021/06/18 02:21:25;;;;;;;12.30;11.17;;;24.20;78.40;;;;;;4996730;28;20441;-52
2021/06/18 02:23:53;;;;;;;13.53;12.00;;;24.10;78.70;;;;;;4997001;28;20449;-52
2021/06/18 02:26:20;;;;;;;16.93;12.00;;;24.10;79.50;;;;;;4996708;28;20530;-54
2021/06/18 02:28:47;;;;;;;13.20;12.00;;;24.10;80.40;;;;;;4996898;28;20449;-54
2021/06/18 02:31:15;;;;;;;13.10;11.90;;;24.10;81.10;;;;;;4996423;28;20549;-52
2021/06/18 02:33:43;;;;;;;12.40;11.20;;;24.10;81.50;;;;;;4996524;28;20441;-53
2021/06/18 02:36:10;;;;;;;12.10;11.10;;;24.10;82.40;;;;;;4996747;28;20509;-51
2021/06/18 02:38:37;;;;;;;13.20;11.90;;;24.00;83.20;;;;;;4996478;28;20446;-52
2021/06/18 02:41:04;;;;;;;12.20;11.20;;;24.00;84.10;;;;;;4996381;28;20929;-54
2021/06/18 02:43:31;;;;;;;12.70;11.57;;;24.00;85.10;;;;;;4996310;28;20446;-52
2021/06/18 02:45:57;;;;;;;14.37;12.97;;;23.90;86.30;;;;;;4996257;28;20453;-54
2021/06/18 02:48:28;;;;;;;12.70;11.50;;;23.90;87.80;;;;;;4996305;28;20466;-49
2021/06/18 02:51:01;;;;;;;13.53;12.33;;;23.80;89.00;;;;;;4996416;28;20839;-48
2021/06/18 02:53:33;;;;;;;14.17;11.90;;;23.80;90.20;;;;;;4996447;28;20822;-51
2021/06/18 02:56:09;;;;;;;14.20;11.80;;;23.80;90.60;;;;;;4996193;28;20461;-49
2021/06/18 02:58:43;;;;;;;12.53;11.23;;;23.80;91.40;;;;;;4996530;28;20485;-47
2021/06/18 03:01:10;;;;;;;13.60;12.17;;;23.70;92.00;;;;;;4996372;28;20426;-52
2021/06/18 03:03:42;;;;;;;12.73;11.40;;;23.70;92.70;;;;;;4996015;28;21020;-51
2021/06/18 03:06:12;;;;;;;13.23;12.07;;;23.70;93.30;;;;;;4996020;28;20512;-52
2021/06/18 03:08:42;;;;;;;14.83;13.33;;;23.70;93.80;;;;;;4996240;28;20441;-52
2021/06/18 03:11:10;;;;;;;12.67;11.50;;;23.70;94.40;;;;;;4996078;28;20482;-51
2021/06/18 03:13:41;;;;;;;12.53;11.47;;;23.70;95.10;;;;;;4996134;28;20449;-52
2021/06/18 03:16:10;;;;;;;13.00;11.77;;;23.70;95.60;;;;;;4995900;28;20458;-51
2021/06/18 03:18:39;;;;;;;12.20;10.90;;;23.60;96.20;;;;;;4996213;28;20960;-54
2021/06/18 03:21:08;;;;;;;18.23;12.07;;;23.70;96.60;;;;;;4995734;28;20449;-50
2021/06/18 03:23:37;;;;;;;13.13;11.93;;;23.70;97.40;;;;;;4995865;28;20458;-53
2021/06/18 03:26:05;;;;;;;13.73;11.80;;;23.70;97.70;;;;;;4996030;28;20977;-53
2021/06/18 03:28:33;;;;;;;13.10;12.00;;;23.60;98.70;;;;;;4995644;28;20532;-57
2021/06/18 03:31:03;;;;;;;12.53;11.40;;;23.60;99.50;;;;;;4995611;28;20481;-54
2021/06/18 03:33:31;;;;;;;13.70;11.73;;;23.60;99.70;;;;;;4995515;28;20454;-48
2021/06/18 03:35:58;;;;;;;13.40;12.00;;;23.60;99.90;;;;;;4995314;28;20461;-53
2021/06/18 03:38:25;;;;;;;12.57;11.27;;;23.50;99.90;;;;;;4995686;28;20512;-54
2021/06/18 03:40:53;;;;;;;13.30;12.10;;;23.60;99.90;;;;;;4995491;28;20465;-54
2021/06/18 03:43:21;;;;;;;14.03;12.63;;;23.60;99.90;;;;;;4995358;28;20916;-53
2021/06/18 03:45:51;;;;;;;13.87;12.47;;;23.50;99.90;;;;;;4994665;28;20512;-52
2021/06/18 03:48:20;;;;;;;12.20;11.10;;;23.50;99.90;;;;;;4995519;28;20453;-52
2021/06/18 03:50:47;;;;;;;14.73;12.10;;;23.50;99.90;;;;;;4995187;28;20524;-54
2021/06/18 03:53:16;;;;;;;12.60;11.50;;;23.50;99.90;;;;;;4994970;28;20441;-52
2021/06/18 03:55:46;;;;;;;18.33;12.40;;;23.50;99.90;;;;;;4995155;28;20528;-55
2021/06/18 03:58:16;;;;;;;14.67;12.00;;;23.50;99.90;;;;;;4995064;28;21006;-50
2021/06/18 04:00:44;;;;;;;13.00;11.70;;;23.50;99.90;;;;;;4995169;28;20457;-50
2021/06/18 04:03:15;;;;;;;13.67;11.37;;;23.60;99.90;;;;;;4994487;28;21058;-50
2021/06/18 04:05:44;;;;;;;12.33;11.13;;;23.60;99.90;;;;;;4994920;28;20519;-52
2021/06/18 04:08:13;;;;;;;12.43;11.37;;;23.60;99.90;;;;;;4994974;28;20465;-50
2021/06/18 04:10:40;;;;;;;13.03;11.10;;;23.60;99.90;;;;;;4995025;28;20774;-54
2021/06/18 04:13:08;;;;;;;12.87;10.63;;;23.60;99.90;;;;;;4995058;28;20504;-53
2021/06/18 04:15:37;;;;;;;12.20;10.97;;;23.60;99.90;;;;;;4994804;28;20600;-53
2021/06/18 04:18:05;;;;;;;11.73;10.73;;;23.60;99.90;;;;;;4994591;28;20470;-53
2021/06/18 04:20:34;;;;;;;13.03;11.87;;;23.70;99.90;;;;;;4994613;28;20905;-50
2021/06/18 04:23:00;;;;;;;13.13;11.63;;;23.70;99.90;;;;;;4994789;28;20976;-54
2021/06/18 04:25:27;;;;;;;16.10;12.03;;;23.70;99.90;;;;;;4994855;28;20825;-55
2021/06/18 04:27:55;;;;;;;12.83;11.63;;;23.80;99.90;;;;;;4995063;28;20450;-52
2021/06/18 04:30:23;;;;;;;17.10;11.40;;;23.80;99.90;;;;;;4995767;28;20465;-56
2021/06/18 04:32:51;;;;;;;13.03;11.80;;;23.80;99.90;;;;;;4996074;28;20501;-55
2021/06/18 04:35:18;;;;;;;11.80;10.27;;;23.80;99.90;;;;;;4995959;28;20442;-52
2021/06/18 04:37:45;;;;;;;11.50;10.30;;;23.80;99.90;;;;;;4996628;28;20452;-56
2021/06/18 04:40:12;;;;;;;12.90;10.83;;;23.90;99.90;;;;;;4996424;28;20462;-55
2021/06/18 04:42:39;;;;;;;12.90;10.30;;;23.90;99.90;;;;;;4996214;28;20512;-52
2021/06/18 04:45:07;;;;;;;12.93;11.50;;;24.00;99.90;;;;;;4996467;28;20481;-50
2021/06/18 04:47:35;;;;;;;13.00;11.23;;;24.00;99.90;;;;;;4995998;28;20456;-52
2021/06/18 04:50:03;;;;;;;11.73;10.50;;;24.10;99.90;;;;;;4994614;28;20457;-54
2021/06/18 04:52:31;;;;;;;13.30;10.37;;;24.10;99.90;;;;;;4994662;28;20533;-55
2021/06/18 04:55:01;;;;;;;11.80;10.53;;;24.10;99.90;;;;;;4994711;28;20446;-53
2021/06/18 04:57:28;;;;;;;10.80;9.90;;;24.20;99.90;;;;;;4994847;28;20481;-52
2021/06/18 04:59:54;;;;;;;14.07;9.63;;;24.20;99.90;;;;;;4994676;28;20500;-52
2021/06/18 05:02:21;;;;;;;13.13;10.90;;;24.30;99.90;;;;;;4995678;28;20890;-48
2021/06/18 05:04:48;;;;;;;12.43;11.23;;;24.30;99.90;;;;;;4995508;28;20834;-53
2021/06/18 05:07:17;;;;;;;12.40;11.20;;;24.30;99.90;;;;;;4994546;28;20492;-54
2021/06/18 05:09:45;;;;;;;13.90;10.37;;;24.30;99.90;;;;;;4994178;28;20457;-54
2021/06/18 05:12:13;;;;;;;14.87;11.00;;;24.40;99.90;;;;;;4994819;28;20461;-53
2021/06/18 05:14:40;;;;;;;13.33;10.20;;;24.50;99.90;;;;;;4996083;28;20512;-52
2021/06/18 05:17:06;;;;;;;11.43;9.87;;;24.50;99.90;;;;;;4995502;28;20516;-53
2021/06/18 05:19:33;;;;;;;11.43;10.33;;;24.60;99.90;;;;;;4995898;28;20809;-50
2021/06/18 05:22:00;;;;;;;10.70;9.80;;;24.60;99.90;;;;;;4996111;28;20446;-52
2021/06/18 05:24:28;;;;;;;11.23;9.60;;;24.70;99.90;;;;;;4995539;28;20792;-55
2021/06/18 05:26:55;;;;;;;10.87;9.80;;;24.70;99.90;;;;;;4994174;28;20461;-55
2021/06/18 05:29:22;;;;;;;10.70;9.60;;;24.80;99.90;;;;;;4994046;28;20516;-55
2021/06/18 05:31:48;;;;;;;9.83;8.87;;;24.90;99.90;;;;;;4994250;28;20478;-54
2021/06/18 05:34:15;;;;;;;11.03;9.30;;;24.90;99.90;;;;;;4993864;28;20454;-52
2021/06/18 05:36:44;;;;;;;11.03;9.83;;;24.90;99.90;;;;;;4993360;28;20548;-54
2021/06/18 05:39:11;;;;;;;9.00;8.30;;;25.00;99.90;;;;;;4994689;28;20457;-51
2021/06/18 05:41:39;;;;;;;10.37;9.37;;;25.10;99.90;;;;;;4994569;28;20446;-51
2021/06/18 05:44:06;;;;;;;10.23;9.10;;;25.20;99.90;;;;;;4994205;28;20505;-49
2021/06/18 05:46:33;;;;;;;10.20;9.10;;;25.20;99.90;;;;;;4993891;28;20489;-50
2021/06/18 05:49:00;;;;;;;10.23;9.13;;;25.30;99.90;;;;;;4993798;28;20504;-47
2021/06/18 05:51:27;;;;;;;9.73;8.83;;;25.40;99.80;;;;;;4993924;28;20461;-51
2021/06/18 05:53:53;;;;;;;11.37;8.80;;;25.50;99.50;;;;;;4994044;28;20531;-52
2021/06/18 05:56:20;;;;;;;8.93;8.13;;;25.60;99.20;;;;;;4993977;28;20512;-52
2021/06/18 05:58:51;;;;;;;11.10;9.70;;;25.60;98.50;;;;;;4993763;28;20458;-49
2021/06/18 06:01:17;;;;;;;9.50;8.00;;;25.70;98.50;;;;;;4993865;28;20512;-49
2021/06/18 06:03:44;;;;;;;12.50;8.97;;;25.80;97.30;;;;;;5000918;28;20472;-54
2021/06/18 06:06:11;;;;;;;8.83;7.60;;;25.90;97.20;;;;;;5013642;28;20511;-52
2021/06/18 06:08:40;;;;;;;17.67;7.90;;;25.90;96.60;;;;;;5015074;28;20456;-53
2021/06/18 06:11:06;;;;;;;14.00;8.40;;;26.00;96.10;;;;;;5016906;28;20461;-52
2021/06/18 06:13:33;;;;;;;14.03;9.30;;;26.10;95.90;;;;;;5018688;28;20966;-49
2021/06/18 06:16:01;;;;;;;11.27;7.70;;;26.20;95.80;;;;;;5018793;28;20453;-49
2021/06/18 06:18:28;;;;;;;7.93;7.23;;;26.30;94.60;;;;;;5017118;28;20468;-46
2021/06/18 06:20:55;;;;;;;10.60;7.40;;;26.30;93.70;;;;;;5008941;28;20507;-48
2021/06/18 06:23:22;;;;;;;9.60;7.60;;;26.30;92.70;;;;;;5016655;28;20496;-48
2021/06/18 06:25:48;;;;;;;8.13;7.33;;;26.40;92.30;;;;;;5018237;28;20908;-48
2021/06/18 06:28:16;;;;;;;7.93;7.23;;;26.50;92.20;;;;;;5019505;28;20453;-50
2021/06/18 06:30:43;;;;;;;9.17;7.93;;;26.50;91.50;;;;;;5018764;28;20452;-47
2021/06/18 06:33:11;;;;;;;7.33;6.63;;;26.60;90.90;;;;;;5017984;28;20480;-48
2021/06/18 06:35:39;;;;;;;9.73;6.80;;;26.80;90.70;;;;;;5011693;28;20493;-53
2021/06/18 06:38:06;;;;;;;9.43;7.20;;;26.80;90.00;;;;;;5007960;28;20457;-45
2021/06/18 06:40:36;;;;;;;8.43;7.37;;;26.90;89.40;;;;;;4988860;28;20505;-51
2021/06/18 06:43:03;;;;;;;9.23;6.97;;;27.00;88.30;;;;;;5000825;28;20464;-51
2021/06/18 06:45:30;;;;;;;6.77;6.20;;;27.10;88.20;;;;;;5001558;28;20465;-50
2021/06/18 06:47:56;;;;;;;9.87;6.90;;;27.20;86.90;;;;;;5002667;28;20442;-49
2021/06/18 06:50:24;;;;;;;10.20;7.10;;;27.10;87.00;;;;;;4985695;28;20510;-48
2021/06/18 06:52:51;;;;;;;8.23;7.53;;;27.30;86.60;;;;;;4991391;28;20540;-51
2021/06/18 06:55:19;;;;;;;7.50;5.90;;;27.30;85.60;;;;;;5004364;28;20782;-51
2021/06/18 06:57:45;;;;;;;10.83;7.30;;;27.40;84.10;;;;;;5006680;28;20831;-53
2021/06/18 07:00:13;;;;;;;7.13;6.40;;;27.60;83.60;;;;;;5005278;28;20531;-53
2021/06/18 07:02:39;;;;;;;7.10;6.40;;;27.70;82.60;;;;;;5008861;28;20539;-54
2021/06/18 07:05:07;;;;;;;7.70;6.90;;;28.00;81.80;;;;;;5008397;28;20449;-51
2021/06/18 07:07:36;;;;;;;6.93;6.20;;;28.20;81.00;;;;;;5010144;28;20796;-53
2021/06/18 07:10:04;;;;;;;6.87;6.17;;;28.40;79.00;;;;;;5009027;28;20503;-54
2021/06/18 07:12:30;;;;;;;8.83;7.23;;;28.60;78.30;;;;;;5003967;28;20509;-50
2021/06/18 07:14:57;;;;;;;9.40;6.20;;;28.80;75.60;;;;;;5005421;28;20473;-51
2021/06/18 07:17:24;;;;;;;10.47;7.17;;;29.10;75.80;;;;;;4995400;28;20509;-49
2021/06/18 07:19:52;;;;;;;6.40;5.80;;;30.00;74.50;;;;;;4998805;28;20932;-54
2021/06/18 07:22:21;;;;;;;11.97;6.40;;;31.50;68.30;;;;;;4992370;28;20545;-54
2021/06/18 07:24:50;;;;;;;6.90;6.27;;;33.10;62.70;;;;;;4989773;28;20926;-48
2021/06/18 07:27:20;;;;;;;7.30;6.80;;;34.70;57.20;;;;;;4983727;28;20471;-51
2021/06/18 07:29:47;;;;;;;6.60;5.87;;;35.60;54.30;;;;;;5002730;28;20449;-52
2021/06/18 07:32:14;;;;;;;7.10;6.40;;;36.40;51.30;;;;;;5001586;28;20483;-53
2021/06/18 07:34:40;;;;;;;6.87;6.17;;;37.50;49.50;;;;;;4994670;28;20455;-51
2021/06/18 07:37:07;;;;;;;6.77;5.80;;;38.00;47.10;;;;;;4989371;28;20943;-53
2021/06/18 07:39:34;;;;;;;8.10;6.50;;;38.80;45.40;;;;;;5005199;28;20448;-52
2021/06/18 07:42:02;;;;;;;6.00;5.50;;;39.50;43.60;;;;;;5014398;28;20473;-53
2021/06/18 07:44:31;;;;;;;8.33;5.10;;;40.40;41.90;;;;;;5011639;28;20445;-53
2021/06/18 07:46:58;;;;;;;6.33;5.83;;;41.30;40.30;;;;;;4996602;28;20450;-54
2021/06/18 07:49:27;;;;;;;7.00;6.30;;;41.50;38.90;;;;;;5006031;28;20743;-47
2021/06/18 07:51:54;;;;;;;9.40;5.60;;;42.00;38.70;;;;;;5011459;28;20465;-53
2021/06/18 07:54:22;;;;;;;8.83;5.07;;;42.30;37.50;;;;;;5008335;28;20769;-49
2021/06/18 07:56:48;;;;;;;15.23;5.63;;;42.00;37.00;;;;;;5015823;28;20449;-52
2021/06/18 07:59:16;;;;;;;5.80;5.20;;;41.60;37.10;;;;;;4995743;28;20446;-52
2021/06/18 08:01:43;;;;;;;5.27;4.83;;;41.60;37.30;;;;;;4988083;28;20454;-52
2021/06/18 08:04:10;;;;;;;6.20;5.43;;;42.00;36.60;;;;;;5001712;28;20488;-54
2021/06/18 08:06:37;;;;;;;5.60;5.10;;;41.40;36.40;;;;;;4989990;28;20462;-51
2021/06/18 08:09:05;;;;;;;8.53;5.13;;;41.20;36.50;;;;;;4997485;28;20829;-50
2021/06/18 08:11:32;;;;;;;5.80;5.30;;;41.10;36.50;;;;;;4997131;28;20464;-48
2021/06/18 08:13:59;;;;;;;6.33;5.63;;;41.10;36.10;;;;;;5002945;28;20469;-49
2021/06/18 08:16:27;;;;;;;9.67;5.40;;;40.90;36.00;;;;;;4990256;28;20483;-52
2021/06/18 08:18:54;;;;;;;9.30;5.10;;;40.50;36.20;;;;;;5003198;28;20446;-48
2021/06/18 08:21:21;;;;;;;5.30;4.80;;;40.70;36.40;;;;;;4995367;28;20450;-54
2021/06/18 08:23:47;;;;;;;5.93;5.43;;;40.80;35.80;;;;;;4995917;28;20443;-49
2021/06/18 08:26:14;;;;;;;6.07;5.57;;;41.20;35.10;;;;;;5000699;28;20439;-52
2021/06/18 08:28:41;;;;;;;5.73;5.23;;;41.70;35.30;;;;;;5000820;28;20458;-53
2021/06/18 08:31:08;;;;;;;8.97;6.10;;;42.30;34.10;;;;;;5020716;28;20449;-49
2021/06/18 08:33:37;;;;;;;6.23;5.03;;;42.90;34.30;;;;;;5005627;28;20966;-54
2021/06/18 08:36:05;;;;;;;5.03;4.63;;;43.20;33.00;;;;;;4995866;28;20446;-49
2021/06/18 08:38:34;;;;;;;5.57;5.00;;;43.20;32.60;;;;;;4999274;28;21142;-51
2021/06/18 08:41:03;;;;;;;7.80;5.30;;;42.80;33.00;;;;;;5007525;28;20496;-50
2021/06/18 08:43:31;;;;;;;5.17;4.67;;;42.80;32.70;;;;;;4987477;28;20446;-55
2021/06/18 08:46:00;;;;;;;6.20;4.90;;;43.30;32.20;;;;;;4999749;28;20528;-54
2021/06/18 08:48:28;;;;;;;4.93;4.53;;;43.00;32.70;;;;;;5007899;28;20935;-53
2021/06/18 08:50:56;;;;;;;5.50;5.00;;;42.50;32.10;;;;;;5013020;28;20480;-52
2021/06/18 08:53:24;;;;;;;5.07;4.57;;;42.30;33.20;;;;;;5000094;28;20550;-50
2021/06/18 08:55:51;;;;;;;5.97;5.17;;;42.50;32.60;;;;;;5013278;28;20460;-53
2021/06/18 08:58:18;;;;;;;5.60;4.63;;;42.60;32.50;;;;;;4986420;28;20835;-54
2021/06/18 09:00:47;;;;;;;4.90;4.50;;;42.80;32.30;;;;;;4992443;28;20523;-51
2021/06/18 09:03:37;;;;;;;10.83;4.50;;;42.80;31.30;;;;;;5001209;28;20469;-51
2021/06/18 09:06:33;;;;;;;5.90;4.33;;;43.10;31.30;;;;;;4995244;28;20948;-52
2021/06/18 09:09:11;;;;;;;9.93;4.10;;;43.50;30.00;;;;;;4995721;28;20446;-54
2021/06/18 09:11:39;;;;;;;6.20;4.40;;;43.30;30.10;;;;;;4999904;28;20453;-51
2021/06/18 09:14:27;;;;;;;5.10;4.60;;;43.60;29.90;;;;;;4996181;28;20520;-52
2021/06/18 09:17:09;;;;;;;6.57;5.10;;;43.80;30.50;;;;;;4986579;28;20766;-53
2021/06/18 09:19:37;;;;;;;5.33;4.27;;;43.50;30.20;;;;;;4997654;28;20445;-53
2021/06/18 09:22:07;;;;;;;6.07;4.97;;;43.60;31.10;;;;;;5003921;28;20448;-52
2021/06/18 09:24:36;;;;;;;8.87;5.10;;;44.00;30.00;;;;;;5005215;28;20477;-53
2021/06/18 09:27:05;;;;;;;4.40;4.10;;;44.30;30.00;;;;;;5008171;28;20445;-52
2021/06/18 09:29:33;;;;;;;4.60;4.20;;;44.40;28.90;;;;;;5009089;28;20446;-55
2021/06/18 09:32:01;;;;;;;5.00;4.60;;;44.00;28.60;;;;;;5009421;28;20913;-55
2021/06/18 09:34:46;;;;;;;4.80;4.40;;;44.00;29.00;;;;;;5006542;28;20509;-52
2021/06/18 09:37:29;;;;;;;6.67;5.20;;;44.40;29.30;;;;;;5007879;28;20877;-54
2021/06/18 09:39:58;;;;;;;5.23;4.73;;;44.60;28.70;;;;;;5002356;28;20469;-51
2021/06/18 09:42:24;;;;;;;5.20;4.70;;;44.40;28.80;;;;;;5008799;28;20445;-55
2021/06/18 09:45:03;;;;;;;8.70;5.60;;;44.00;29.00;;;;;;5015891;28;20464;-52
2021/06/18 09:47:31;;;;;;;6.03;5.53;;;43.70;30.00;;;;;;5001456;28;20449;-56
2021/06/18 09:49:58;;;;;;;4.73;4.43;;;43.70;30.00;;;;;;5001767;28;20457;-56
2021/06/18 09:52:26;;;;;;;5.87;4.40;;;43.60;29.80;;;;;;5007759;28;20449;-56
2021/06/18 09:54:54;;;;;;;4.50;4.10;;;43.50;29.50;;;;;;5016852;28;20795;-54
2021/06/18 09:57:23;;;;;;;5.80;5.30;;;43.30;30.90;;;;;;5002011;28;20532;-55
2021/06/18 09:59:53;;;;;;;5.27;4.73;;;43.30;30.70;;;;;;5007205;28;20462;-54
2021/06/18 10:02:22;;;;;;;5.67;5.17;;;43.30;29.50;;;;;;5014486;28;20849;-50
2021/06/18 10:04:51;;;;;;;7.83;5.40;;;43.00;30.00;;;;;;4998826;28;20781;-55
2021/06/18 10:07:21;;;;;;;4.93;4.57;;;42.70;29.80;;;;;;5002104;28;20462;-55
2021/06/18 10:09:50;;;;;;;5.37;4.87;;;42.80;30.00;;;;;;4991553;28;20510;-55
2021/06/18 10:12:17;;;;;;;5.60;5.07;;;42.80;29.60;;;;;;4996494;28;20528;-54
2021/06/18 10:14:44;;;;;;;5.70;5.13;;;42.40;30.00;;;;;;5003055;28;20474;-54
2021/06/18 10:17:10;;;;;;;6.23;4.40;;;41.70;31.10;;;;;;4997545;28;20462;-55
2021/06/18 10:19:37;;;;;;;5.93;4.90;;;41.40;31.60;;;;;;4984201;28;20874;-54
2021/06/18 10:22:11;;;;;;;5.07;4.57;;;41.30;31.30;;;;;;5002245;28;20459;-54
2021/06/18 10:24:42;;;;;;;5.40;4.37;;;40.80;31.30;;;;;;5002136;28;20446;-54
2021/06/18 10:27:13;;;;;;;6.97;5.17;;;40.50;30.70;;;;;;5000837;28;20454;-55
2021/06/18 10:29:42;;;;;;;4.77;4.37;;;40.40;31.40;;;;;;5003680;28;20480;-51
2021/06/18 10:32:31;;;;;;;5.40;4.90;;;39.80;31.20;;;;;;5005685;28;20493;-53
2021/06/18 10:35:00;;;;;;;12.20;5.50;;;39.50;32.30;;;;;;4994095;28;20560;-53
2021/06/18 10:37:28;;;;;;;5.20;4.43;;;39.30;33.20;;;;;;5004504;28;20519;-52
2021/06/18 10:39:56;;;;;;;4.97;4.47;;;39.30;33.20;;;;;;5005803;28;20848;-54
2021/06/18 10:42:24;;;;;;;6.27;4.73;;;39.30;33.10;;;;;;5000797;28;20499;-55
2021/06/18 10:44:52;;;;;;;5.00;4.57;;;38.70;32.60;;;;;;5002624;28;20503;-55
2021/06/18 10:47:55;;;;;;;17.03;15.23;;;38.30;33.00;;;;;;4999200;28;20453;-53
2021/06/18 10:50:48;;;;;;;6.47;4.90;;;38.20;33.80;;;;;;4999110;28;20437;-52
2021/06/18 10:53:22;;;;;;;7.80;5.30;;;37.90;33.80;;;;;;5001833;28;20491;-54
2021/06/18 10:55:53;;;;;;;4.53;4.20;;;37.50;33.40;;;;;;4999917;28;20445;-52
2021/06/18 10:58:21;;;;;;;10.80;4.57;;;37.20;34.00;;;;;;5002815;28;20863;-53
2021/06/18 11:00:47;;;;;;;5.53;5.13;;;36.80;34.80;;;;;;4998006;28;20446;-54
2021/06/18 11:03:17;;;;;;;5.47;4.40;;;36.90;35.00;;;;;;4996320;28;20477;-51
2021/06/18 11:05:46;;;;;;;5.03;4.63;;;37.00;35.30;;;;;;5001028;28;20533;-53
2021/06/18 11:08:26;;;;;;;5.03;4.63;;;37.10;34.80;;;;;;4995185;28;20920;-50
2021/06/18 11:10:57;;;;;;;4.90;4.50;;;37.30;34.70;;;;;;5001299;28;20464;-53
2021/06/18 11:13:29;;;;;;;5.80;4.47;;;37.10;34.30;;;;;;4996442;28;20985;-50
2021/06/18 11:15:56;;;;;;;5.20;4.27;;;36.80;34.70;;;;;;5004312;28;20467;-55
2021/06/18 11:18:35;;;;;;;5.70;4.50;;;36.70;35.10;;;;;;5003010;28;20789;-55
2021/06/18 11:21:03;;;;;;;6.93;5.07;;;36.60;34.40;;;;;;5010586;28;20482;-55
2021/06/18 11:23:35;;;;;;;9.17;5.63;;;36.50;34.50;;;;;;5009240;28;20734;-54
2021/06/18 11:26:07;;;;;;;14.07;5.17;;;36.50;35.30;;;;;;5006841;28;20457;-53
2021/06/18 11:28:47;;;;;;;5.30;4.80;;;36.80;35.80;;;;;;5005086;28;20449;-52
2021/06/18 11:31:21;;;;;;;6.33;4.47;;;36.80;35.20;;;;;;4991127;28;20442;-52
2021/06/18 11:33:57;;;;;;;5.20;4.80;;;36.90;35.00;;;;;;5002370;28;20484;-54
2021/06/18 11:36:52;;;;;;;4.20;3.90;;;36.90;34.30;;;;;;4998618;28;20461;-55
2021/06/18 11:39:21;;;;;;;5.37;4.47;;;36.80;34.60;;;;;;5001919;28;20445;-55
2021/06/18 11:41:56;;;;;;;7.93;4.90;;;36.80;34.80;;;;;;5001398;28;20983;-55
2021/06/18 11:44:26;;;;;;;7.50;5.20;;;36.90;35.00;;;;;;4995476;28;20426;-57
2021/06/18 11:46:55;;;;;;;5.40;4.90;;;37.10;34.10;;;;;;4998913;28;20473;-56
2021/06/18 11:49:25;;;;;;;6.17;4.73;;;37.20;34.00;;;;;;4998311;28;20452;-55
2021/06/18 11:51:53;;;;;;;6.40;4.43;;;36.90;34.00;;;;;;5004685;28;20453;-53
2021/06/18 11:54:31;;;;;;;7.80;4.90;;;36.90;33.70;;;;;;5003705;28;20486;-51
2021/06/18 11:57:02;;;;;;;6.10;4.10;;;36.70;34.20;;;;;;5008432;28;20445;-56
2021/06/18 11:59:30;;;;;;;4.80;4.40;;;36.60;34.90;;;;;;5000261;28;20457;-53
2021/06/18 12:01:57;;;;;;;8.00;5.10;;;36.50;34.90;;;;;;5004242;28;20466;-54
2021/06/18 12:04:24;;;;;;;6.00;5.27;;;36.50;35.40;;;;;;5008708;28;20963;-51
2021/06/18 12:06:51;;;;;;;6.93;5.00;;;36.40;35.90;;;;;;5003354;28;20449;-51
2021/06/18 12:09:19;;;;;;;7.93;4.87;;;36.20;36.50;;;;;;5006398;28;20508;-53
2021/06/18 12:11:47;;;;;;;7.73;5.30;;;36.10;36.60;;;;;;5008219;28;20466;-61
2021/06/18 12:14:17;;;;;;;6.10;5.50;;;35.90;37.20;;;;;;5008252;28;20579;-55
2021/06/18 12:16:49;;;;;;;6.20;5.07;;;35.70;36.90;;;;;;4999093;28;20449;-57
2021/06/18 12:19:21;;;;;;;5.50;4.90;;;35.40;36.90;;;;;;5000951;28;20542;-56
2021/06/18 12:22:06;;;;;;;6.80;5.53;;;35.50;37.70;;;;;;5008345;28;20468;-55
2021/06/18 12:24:35;;;;;;;5.03;4.63;;;35.60;36.80;;;;;;4995736;28;20437;-50
2021/06/18 12:27:04;;;;;;;5.40;4.93;;;35.60;36.10;;;;;;4996955;28;20467;-56
2021/06/18 12:29:31;;;;;;;5.33;4.90;;;35.50;36.30;;;;;;4992399;28;20512;-54
2021/06/18 12:32:00;;;;;;;4.87;4.27;;;35.60;36.70;;;;;;5009412;28;20523;-55
2021/06/18 12:34:28;;;;;;;9.43;5.60;;;35.80;36.40;;;;;;5010229;28;20488;-51
2021/06/18 12:37:04;;;;;;;9.20;5.20;;;35.90;36.50;;;;;;5007889;28;20453;-55
2021/06/18 12:39:31;;;;;;;5.80;5.30;;;35.90;36.70;;;;;;4997214;28;20460;-54
2021/06/18 12:41:58;;;;;;;6.23;5.33;;;36.00;36.30;;;;;;4999561;28;20536;-55
2021/06/18 12:44:33;;;;;;;7.57;5.30;;;36.00;36.40;;;;;;5004499;28;20506;-53
2021/06/18 12:47:04;;;;;;;5.53;4.73;;;35.80;37.30;;;;;;5004734;28;20888;-51
2021/06/18 12:49:32;;;;;;;5.93;4.70;;;35.80;36.50;;;;;;4993401;28;20457;-51